createdAt,value
2018-07-23T00:02:04.263Z,5.87
2018-07-23T00:04:32.860Z,5.70
2018-07-23T00:07:01.713Z,5.50
2018-07-23T00:09:30.520Z,5.73
2018-07-23T00:11:59.225Z,5.60
2018-07-23T00:14:28.197Z,6.30
2018-07-23T00:16:57.009Z,5.93
2018-07-23T00:19:25.712Z,6.23
2018-07-23T00:21:54.048Z,7.60
2018-07-23T00:24:22.715Z,6.87
2018-07-23T00:26:51.334Z,7.60
2018-07-23T00:29:20.792Z,6.63
2018-07-23T00:31:49.505Z,6.10
2018-07-23T00:34:18.470Z,6.27
2018-07-23T00:36:47.105Z,6.57
2018-07-23T00:39:15.762Z,6.60
2018-07-23T00:41:44.577Z,5.80
2018-07-23T00:44:13.243Z,6.10
2018-07-23T00:46:41.869Z,6.10
2018-07-23T00:49:10.479Z,6.10
2018-07-23T00:51:39.360Z,6.37
2018-07-23T00:54:08.122Z,6.47
2018-07-23T00:56:36.472Z,6.13
2018-07-23T00:59:05.265Z,6.47
2018-07-23T01:01:34.015Z,6.77
2018-07-23T01:04:02.572Z,6.90
2018-07-23T01:06:31.930Z,6.57
2018-07-23T01:09:00.569Z,6.60
2018-07-23T01:11:29.278Z,7.00
2018-07-23T01:13:58.025Z,7.47
2018-07-23T01:16:26.552Z,6.33
2018-07-23T01:18:55.364Z,6.67
2018-07-23T01:21:24.010Z,5.67
2018-07-23T01:23:52.647Z,6.47
2018-07-23T01:26:21.277Z,6.53
2018-07-23T01:28:49.888Z,6.77
2018-07-23T01:31:18.194Z,6.10
2018-07-23T01:33:46.762Z,6.40
2018-07-23T01:36:15.334Z,6.77
2018-07-23T01:38:43.612Z,7.00
2018-07-23T01:41:12.192Z,5.87
2018-07-23T01:43:40.865Z,7.50
2018-07-23T01:46:09.445Z,6.83
2018-07-23T01:48:38.347Z,6.77
2018-07-23T01:51:07.061Z,6.60
2018-07-23T01:53:35.594Z,8.17
2018-07-23T01:56:04.267Z,7.70
2018-07-23T01:58:33.040Z,6.93
2018-07-23T02:01:08.540Z,7.00
2018-07-23T02:03:37.939Z,7.50
2018-07-23T02:06:07.258Z,8.10
2018-07-23T02:08:35.901Z,7.70
2018-07-23T02:11:05.369Z,7.20
2018-07-23T02:13:34.098Z,7.73
2018-07-23T02:16:02.966Z,7.67
2018-07-23T02:18:31.620Z,7.33
2018-07-23T02:21:00.352Z,7.93
2018-07-23T02:23:28.987Z,7.00
2018-07-23T02:25:57.533Z,7.40
2018-07-23T02:28:26.175Z,6.87
2018-07-23T02:30:54.840Z,7.90
2018-07-23T02:33:23.357Z,6.93
2018-07-23T02:35:51.903Z,7.93
2018-07-23T02:38:21.599Z,8.40
2018-07-23T02:40:50.182Z,8.60
2018-07-23T02:43:18.800Z,6.37
2018-07-23T02:45:47.402Z,8.47
2018-07-23T02:48:16.177Z,7.47
2018-07-23T02:50:45.103Z,7.30
2018-07-23T02:53:13.611Z,7.07
2018-07-23T02:55:42.377Z,7.67
2018-07-23T02:58:11.097Z,7.20
2018-07-23T03:00:39.851Z,7.33
2018-07-23T03:03:09.601Z,7.40
2018-07-23T03:05:38.323Z,7.40
2018-07-23T03:08:07.172Z,8.93
2018-07-23T03:10:35.783Z,6.93
2018-07-23T03:13:04.745Z,7.00
2018-07-23T03:15:33.361Z,8.10
2018-07-23T03:18:02.004Z,8.00
2018-07-23T03:20:30.599Z,7.83
2018-07-23T03:22:59.236Z,8.07
2018-07-23T03:25:27.719Z,6.80
2018-07-23T03:27:56.548Z,7.43
2018-07-23T03:30:25.162Z,7.23
2018-07-23T03:32:53.858Z,7.10
2018-07-23T03:35:22.662Z,8.40
2018-07-23T03:37:51.396Z,9.30
2018-07-23T03:40:20.103Z,10.43
2018-07-23T03:42:48.725Z,9.57
2018-07-23T03:45:17.438Z,8.80
2018-07-23T03:47:46.477Z,8.70
2018-07-23T03:50:15.139Z,8.00
2018-07-23T03:52:44.712Z,8.93
2018-07-23T03:55:13.278Z,9.80
2018-07-23T03:57:42.932Z,8.40
2018-07-23T04:00:11.612Z,8.60
2018-07-23T04:02:39.963Z,8.60
2018-07-23T04:05:08.592Z,8.80
2018-07-23T04:07:37.127Z,8.60
2018-07-23T04:10:05.917Z,8.30
2018-07-23T04:12:34.659Z,8.50
2018-07-23T04:15:03.266Z,8.20
2018-07-23T04:17:32.128Z,9.07
2018-07-23T04:20:00.597Z,8.63
2018-07-23T04:22:29.264Z,7.83
2018-07-23T04:24:58.172Z,7.97
2018-07-23T04:27:26.852Z,8.20
2018-07-23T04:29:55.612Z,8.40
2018-07-23T04:32:24.287Z,8.87
2018-07-23T04:34:53.370Z,8.80
2018-07-23T04:37:22.140Z,9.30
2018-07-23T04:39:50.723Z,9.40
2018-07-23T04:42:19.559Z,9.23
2018-07-23T04:44:48.058Z,9.33
2018-07-23T04:47:16.602Z,8.73
2018-07-23T04:49:45.285Z,8.93
2018-07-23T04:52:13.911Z,9.20
2018-07-23T04:54:42.498Z,9.97
2018-07-23T04:57:11.158Z,10.60
2018-07-23T04:59:39.694Z,10.67
2018-07-23T05:02:08.351Z,10.10
2018-07-23T05:04:36.972Z,11.60
2018-07-23T05:07:05.829Z,10.50
2018-07-23T05:09:34.570Z,12.70
2018-07-23T05:12:04.087Z,11.77
2018-07-23T05:14:33.766Z,11.30
2018-07-23T05:17:02.336Z,10.63
2018-07-23T05:19:30.979Z,12.63
2018-07-23T05:21:59.632Z,12.30
2018-07-23T05:24:28.391Z,12.10
2018-07-23T05:26:57.058Z,13.60
2018-07-23T05:29:25.815Z,13.23
2018-07-23T05:31:55.151Z,13.87
2018-07-23T05:34:23.948Z,14.50
2018-07-23T05:36:53.471Z,14.23
2018-07-23T05:39:22.253Z,14.33
2018-07-23T05:41:51.134Z,14.70
2018-07-23T05:44:19.752Z,14.27
2018-07-23T05:46:48.833Z,14.80
2018-07-23T05:49:17.719Z,14.20
2018-07-23T05:51:46.777Z,14.60
2018-07-23T05:54:15.535Z,14.43
2018-07-23T05:56:44.144Z,16.03
2018-07-23T05:59:12.877Z,13.63
2018-07-23T06:01:41.420Z,13.40
2018-07-23T06:04:10.012Z,14.47
2018-07-23T06:06:39.709Z,16.23
2018-07-23T06:09:09.760Z,14.40
2018-07-23T06:11:38.556Z,15.30
2018-07-23T06:14:07.161Z,14.77
2018-07-23T06:16:36.392Z,15.23
2018-07-23T06:19:05.053Z,14.27
2018-07-23T06:21:33.605Z,15.40
2018-07-23T06:24:01.822Z,14.83
2018-07-23T06:26:30.440Z,16.30
2018-07-23T06:28:59.086Z,15.23
2018-07-23T06:31:27.675Z,15.73
2018-07-23T06:33:56.223Z,13.60
2018-07-23T06:36:24.840Z,13.77
2018-07-23T06:38:53.716Z,14.40
2018-07-23T06:41:22.249Z,12.30
2018-07-23T06:43:50.912Z,13.20
2018-07-23T06:46:19.702Z,13.07
2018-07-23T06:48:48.286Z,12.00
2018-07-23T06:51:16.966Z,12.40
2018-07-23T06:53:45.541Z,12.60
2018-07-23T06:56:14.065Z,13.10
2018-07-23T06:58:42.346Z,11.37
2018-07-23T07:01:10.921Z,11.37
2018-07-23T07:03:39.457Z,12.67
2018-07-23T07:06:07.940Z,11.80
2018-07-23T07:08:36.592Z,13.73
2018-07-23T07:11:05.989Z,11.20
2018-07-23T07:13:34.548Z,10.33
2018-07-23T07:16:03.089Z,10.17
2018-07-23T07:18:31.418Z,11.73
2018-07-23T07:21:00.276Z,9.43
2018-07-23T07:23:30.025Z,11.00
2018-07-23T07:25:58.837Z,10.30
2018-07-23T07:28:27.608Z,11.50
2018-07-23T07:30:56.411Z,10.23
2018-07-23T07:33:25.355Z,10.33
2018-07-23T07:35:54.130Z,10.50
2018-07-23T07:38:22.852Z,9.20
2018-07-23T07:40:51.668Z,9.50
2018-07-23T07:43:20.209Z,10.93
2018-07-23T07:45:49.016Z,9.70
2018-07-23T07:48:17.733Z,10.00
2018-07-23T07:50:46.369Z,11.50
2018-07-23T07:53:14.911Z,10.30
2018-07-23T07:55:43.537Z,8.97
2018-07-23T07:58:12.072Z,10.20
2018-07-23T08:00:40.913Z,10.53
2018-07-23T08:03:09.560Z,9.90
2018-07-23T08:05:38.065Z,9.77
2018-07-23T08:08:07.123Z,9.60
2018-07-23T08:10:35.340Z,9.87
2018-07-23T08:13:04.043Z,11.00
2018-07-23T08:15:39.812Z,9.20
2018-07-23T08:18:08.584Z,9.87
2018-07-23T08:20:37.212Z,10.17
2018-07-23T08:23:05.808Z,9.97
2018-07-23T08:25:35.056Z,10.77
2018-07-23T08:28:03.644Z,10.97
2018-07-23T08:30:32.281Z,8.87
2018-07-23T08:33:00.971Z,8.90
2018-07-23T08:35:29.508Z,8.77
2018-07-23T08:37:58.113Z,10.80
2018-07-23T08:40:26.826Z,11.20
2018-07-23T08:42:55.499Z,9.30
2018-07-23T08:45:24.037Z,9.30
2018-07-23T08:47:52.574Z,11.63
2018-07-23T08:50:21.176Z,11.47
2018-07-23T08:52:49.829Z,11.03
2018-07-23T08:55:18.410Z,10.20
2018-07-23T08:57:47.019Z,11.37
2018-07-23T09:00:15.813Z,11.33
2018-07-23T09:02:44.928Z,11.50
2018-07-23T09:05:13.827Z,12.03
2018-07-23T09:07:42.621Z,11.40
2018-07-23T09:10:11.160Z,10.60
2018-07-23T09:12:40.032Z,13.07
2018-07-23T09:15:08.728Z,12.43
2018-07-23T09:17:37.358Z,9.50
2018-07-23T09:20:06.099Z,11.07
2018-07-23T09:22:35.496Z,11.37
2018-07-23T09:25:04.333Z,10.43
2018-07-23T09:27:32.891Z,9.50
2018-07-23T09:30:01.611Z,11.03
2018-07-23T09:32:30.267Z,9.40
2018-07-23T09:35:00.011Z,8.67
2018-07-23T09:37:28.749Z,9.07
2018-07-23T09:39:57.610Z,8.63
2018-07-23T09:42:26.220Z,9.80
2018-07-23T09:44:54.910Z,9.17
2018-07-23T09:47:23.576Z,8.60
2018-07-23T09:49:52.440Z,7.87
2018-07-23T09:52:21.004Z,8.03
2018-07-23T09:54:49.741Z,8.13
2018-07-23T09:57:18.241Z,9.77
2018-07-23T09:59:46.760Z,8.73
2018-07-23T10:02:15.288Z,8.10
2018-07-23T10:04:44.115Z,7.67
2018-07-23T10:07:12.669Z,8.70
2018-07-23T10:09:41.361Z,9.93
2018-07-23T10:12:10.212Z,8.50
2018-07-23T10:14:38.733Z,9.53
2018-07-23T10:17:07.331Z,7.17
2018-07-23T10:19:35.980Z,8.23
2018-07-23T10:22:05.600Z,7.70
2018-07-23T10:24:34.087Z,9.13
2018-07-23T10:27:02.658Z,7.43
2018-07-23T10:29:31.214Z,7.87
2018-07-23T10:31:59.848Z,8.37
2018-07-23T10:34:28.436Z,7.43
2018-07-23T10:36:56.949Z,9.20
2018-07-23T10:39:25.636Z,9.00
2018-07-23T10:41:54.329Z,8.03
2018-07-23T10:44:22.960Z,9.27
2018-07-23T10:46:51.685Z,9.47
2018-07-23T10:49:20.251Z,9.53
2018-07-23T10:51:48.894Z,8.10
2018-07-23T10:54:17.435Z,9.23
2018-07-23T10:56:46.029Z,8.67
2018-07-23T10:59:14.761Z,8.37
2018-07-23T11:01:43.282Z,8.97
2018-07-23T11:04:11.849Z,9.50
2018-07-23T11:06:40.450Z,9.17
2018-07-23T11:09:09.077Z,9.60
2018-07-23T11:11:37.943Z,8.43
2018-07-23T11:14:06.696Z,7.27
2018-07-23T11:16:35.336Z,11.23
2018-07-23T11:19:04.097Z,11.13
2018-07-23T11:21:32.628Z,8.57
2018-07-23T11:24:01.568Z,8.33
2018-07-23T11:26:30.097Z,8.50
2018-07-23T11:28:58.700Z,9.40
2018-07-23T11:31:27.288Z,9.20
2018-07-23T11:33:58.898Z,9.00
2018-07-23T11:36:27.612Z,8.20
2018-07-23T11:38:56.463Z,7.73
2018-07-23T11:41:25.110Z,10.37
2018-07-23T11:43:53.636Z,8.37
2018-07-23T11:46:24.982Z,10.50
2018-07-23T11:48:51.770Z,9.20
2018-07-23T11:51:20.328Z,7.93
2018-07-23T11:53:48.987Z,7.43
2018-07-23T11:56:17.839Z,7.40
2018-07-23T11:58:46.543Z,6.50
2018-07-23T12:01:15.544Z,7.27
2018-07-23T12:03:44.284Z,6.40
2018-07-23T12:06:12.914Z,5.30
2018-07-23T12:08:41.491Z,5.43
2018-07-23T12:11:10.467Z,5.33
2018-07-23T12:13:39.218Z,5.97
2018-07-23T12:16:07.800Z,5.27
2018-07-23T12:18:36.312Z,5.60
2018-07-23T12:21:05.137Z,6.30
2018-07-23T12:23:33.969Z,5.53
2018-07-23T12:26:02.630Z,5.70
2018-07-23T12:28:31.249Z,5.90
2018-07-23T12:31:01.245Z,5.90
2018-07-23T12:33:29.808Z,5.40
2018-07-23T12:35:58.884Z,5.00
2018-07-23T12:38:27.623Z,5.50
2018-07-23T12:40:56.372Z,5.20
2018-07-23T12:43:25.094Z,5.90
2018-07-23T12:45:53.883Z,5.47
2018-07-23T12:48:22.618Z,5.67
2018-07-23T12:50:51.458Z,5.70
2018-07-23T12:53:20.192Z,5.77
2018-07-23T12:55:48.902Z,4.83
2018-07-23T12:58:17.452Z,5.43
2018-07-23T13:00:46.005Z,6.17
2018-07-23T13:03:14.736Z,5.47
2018-07-23T13:05:43.874Z,4.97
2018-07-23T13:08:13.152Z,5.50
2018-07-23T13:10:41.825Z,5.50
2018-07-23T13:13:11.153Z,6.10
2018-07-23T13:15:39.746Z,4.70
2018-07-23T13:18:08.309Z,5.57
2018-07-23T13:20:36.940Z,5.43
2018-07-23T13:23:06.022Z,7.07
2018-07-23T13:25:34.270Z,5.03
2018-07-23T13:28:02.890Z,6.00
2018-07-23T13:30:31.540Z,5.10
2018-07-23T13:33:00.098Z,5.30
2018-07-23T13:35:28.812Z,5.93
2018-07-23T13:37:57.495Z,5.30
2018-07-23T13:40:26.904Z,5.13
2018-07-23T13:42:55.688Z,5.93
2018-07-23T13:45:24.305Z,5.43
2018-07-23T13:47:53.080Z,5.30
2018-07-23T13:50:21.997Z,5.23
2018-07-23T13:52:51.550Z,5.40
2018-07-23T13:55:20.368Z,5.37
2018-07-23T13:57:48.888Z,5.63
2018-07-23T14:00:18.491Z,5.43
2018-07-23T14:02:47.162Z,6.10
2018-07-23T14:05:15.767Z,5.40
2018-07-23T14:07:44.408Z,6.53
2018-07-23T14:10:13.133Z,5.67
2018-07-23T14:12:41.821Z,5.83
2018-07-23T14:15:10.411Z,5.60
2018-07-23T14:17:39.061Z,6.00
2018-07-23T14:20:07.628Z,6.40
2018-07-23T14:22:36.300Z,6.13
2018-07-23T14:25:04.619Z,6.00
2018-07-23T14:27:33.250Z,5.30
2018-07-23T14:30:01.738Z,5.27
2018-07-23T14:32:30.348Z,5.87
2018-07-23T14:35:00.261Z,5.37
2018-07-23T14:37:28.847Z,5.73
2018-07-23T14:39:57.677Z,5.70
2018-07-23T14:42:26.300Z,5.80
2018-07-23T14:44:54.998Z,5.97
2018-07-23T14:47:23.576Z,6.90
2018-07-23T14:49:52.321Z,6.20
2018-07-23T14:52:20.827Z,5.60
2018-07-23T14:54:50.100Z,6.50
2018-07-23T14:57:19.400Z,6.20
2018-07-23T14:59:47.922Z,5.90
2018-07-23T15:02:16.543Z,6.27
2018-07-23T15:04:45.077Z,5.63
2018-07-23T15:07:13.589Z,5.30
2018-07-23T15:09:42.133Z,6.03
2018-07-23T15:12:10.672Z,5.40
2018-07-23T15:14:39.231Z,5.33
2018-07-23T15:17:07.917Z,4.63
2018-07-23T15:19:36.572Z,5.50
2018-07-23T15:22:05.180Z,6.10
2018-07-23T15:24:33.656Z,5.47
2018-07-23T15:27:02.417Z,5.83
2018-07-23T15:29:31.315Z,5.70
2018-07-23T15:31:59.881Z,5.87
2018-07-23T15:34:28.397Z,5.77
2018-07-23T15:36:56.883Z,5.33
2018-07-23T15:39:25.749Z,5.07
2018-07-23T15:41:54.315Z,5.40
2018-07-23T15:44:23.173Z,5.40
2018-07-23T15:46:51.689Z,5.20
2018-07-23T15:49:20.221Z,4.57
2018-07-23T15:51:49.761Z,5.30
2018-07-23T15:54:18.335Z,5.30
2018-07-23T15:56:47.071Z,5.50
2018-07-23T15:59:15.657Z,4.80
2018-07-23T16:01:44.925Z,5.57
2018-07-23T16:04:13.665Z,5.57
2018-07-23T16:06:43.025Z,5.17
2018-07-23T16:09:15.046Z,5.97
2018-07-23T16:11:44.304Z,5.10
2018-07-23T16:14:13.445Z,6.20
2018-07-23T16:16:41.962Z,5.50
2018-07-23T16:19:10.645Z,5.40
2018-07-23T16:21:39.364Z,5.50
2018-07-23T16:24:08.122Z,6.00
2018-07-23T16:26:36.866Z,5.03
2018-07-23T16:29:05.412Z,6.10
2018-07-23T16:31:34.007Z,5.70
2018-07-23T16:34:02.602Z,5.07
2018-07-23T16:36:32.108Z,6.00
2018-07-23T16:39:00.789Z,6.10
2018-07-23T16:41:36.466Z,5.70
2018-07-23T16:44:06.053Z,5.57
2018-07-23T16:46:34.954Z,6.17
2018-07-23T16:49:04.430Z,5.53
2018-07-23T16:51:33.161Z,5.53
2018-07-23T16:54:02.596Z,5.73
2018-07-23T16:56:31.201Z,5.60
2018-07-23T16:58:59.761Z,5.83
2018-07-23T17:01:28.403Z,6.13
2018-07-23T17:03:57.029Z,6.80
2018-07-23T17:06:25.732Z,6.37
2018-07-23T17:08:54.261Z,6.53
2018-07-23T17:11:23.456Z,5.80
2018-07-23T17:13:53.838Z,6.50
2018-07-23T17:16:22.571Z,5.90
2018-07-23T17:18:51.800Z,6.77
2018-07-23T17:21:20.779Z,6.40
2018-07-23T17:23:50.360Z,5.70
2018-07-23T17:26:20.062Z,6.67
2018-07-23T17:28:55.391Z,6.30
2018-07-23T17:31:24.225Z,5.93
2018-07-23T17:33:53.008Z,6.37
2018-07-23T17:36:22.188Z,5.67
2018-07-23T17:38:52.831Z,5.53
2018-07-23T17:41:22.232Z,6.40
2018-07-23T17:43:51.278Z,5.87
2018-07-23T17:46:19.620Z,6.53
2018-07-23T17:48:48.255Z,6.90
2018-07-23T17:51:18.557Z,7.03
2018-07-23T17:53:47.226Z,6.50
2018-07-23T17:56:16.092Z,6.20
2018-07-23T17:58:45.088Z,6.60
2018-07-23T18:01:13.957Z,6.87
2018-07-23T18:03:42.639Z,6.10
2018-07-23T18:06:11.476Z,6.60
2018-07-23T18:08:40.092Z,6.57
2018-07-23T18:11:08.793Z,6.90
2018-07-23T18:13:37.400Z,6.90
2018-07-23T18:16:06.876Z,7.07
2018-07-23T18:18:35.775Z,6.23
2018-07-23T18:21:05.293Z,6.10
2018-07-23T18:23:34.528Z,6.93
2018-07-23T18:26:04.176Z,6.30
2018-07-23T18:28:32.922Z,6.07
2018-07-23T18:31:01.717Z,7.00
2018-07-23T18:33:31.290Z,6.63
2018-07-23T18:35:59.884Z,6.97
2018-07-23T18:38:28.908Z,6.07
2018-07-23T18:40:57.642Z,6.00
2018-07-23T18:43:25.924Z,5.90
2018-07-23T18:45:54.539Z,7.00
2018-07-23T18:49:40.027Z,6.43
2018-07-23T18:52:08.725Z,6.70
2018-07-23T18:54:38.733Z,6.67
2018-07-23T18:57:08.595Z,6.53
2018-07-23T18:59:37.208Z,6.60
2018-07-23T19:02:10.910Z,7.80
2018-07-23T19:04:39.509Z,6.67
2018-07-23T19:07:08.839Z,6.73
2018-07-23T19:09:37.784Z,6.47
2018-07-23T19:12:06.826Z,6.20
2018-07-23T19:14:35.969Z,6.10
2018-07-23T19:17:05.770Z,6.43
2018-07-23T19:19:35.105Z,6.30
2018-07-23T19:22:03.866Z,6.67
2018-07-23T19:24:32.695Z,6.00
2018-07-23T19:27:01.950Z,6.20
2018-07-23T19:29:30.840Z,6.10
2018-07-23T19:32:00.313Z,6.60
2018-07-23T19:34:28.898Z,7.03
2018-07-23T19:36:58.096Z,6.33
2018-07-23T19:39:26.869Z,7.07
2018-07-23T19:41:55.705Z,6.47
2018-07-23T19:44:24.292Z,7.30
2018-07-23T19:46:52.874Z,6.40
2018-07-23T19:49:21.554Z,6.50
2018-07-23T19:51:50.150Z,6.80
2018-07-23T19:54:18.786Z,7.33
2018-07-23T19:56:47.655Z,8.17
2018-07-23T19:59:16.312Z,7.40
2018-07-23T20:01:44.857Z,8.27
2018-07-23T20:04:13.601Z,7.37
2018-07-23T20:06:42.895Z,8.60
2018-07-23T20:09:11.725Z,7.23
2018-07-23T20:11:40.399Z,7.70
2018-07-23T20:14:09.066Z,7.60
2018-07-23T20:16:37.637Z,7.67
2018-07-23T20:19:06.230Z,7.30
2018-07-23T20:21:34.880Z,7.77
2018-07-23T20:24:03.598Z,7.83
2018-07-23T20:26:32.486Z,8.40
2018-07-23T20:29:01.186Z,9.03
2018-07-23T20:31:30.657Z,8.13
2018-07-23T20:33:59.880Z,7.67
2018-07-23T20:36:28.515Z,8.00
2018-07-23T20:38:57.975Z,7.77
2018-07-23T20:41:26.707Z,7.37
2018-07-23T20:43:55.317Z,7.37
2018-07-23T20:46:24.144Z,8.87
2018-07-23T20:48:53.069Z,8.50
2018-07-23T20:51:22.378Z,7.73
2018-07-23T20:53:51.094Z,8.30
2018-07-23T20:56:19.876Z,8.67
2018-07-23T20:58:48.516Z,7.97
2018-07-23T21:01:17.278Z,8.47
2018-07-23T21:03:45.946Z,7.83
2018-07-23T21:06:14.616Z,8.20
2018-07-23T21:08:43.280Z,8.30
2018-07-23T21:11:11.833Z,9.13
2018-07-23T21:13:41.220Z,8.43
2018-07-23T21:16:10.632Z,8.00
2018-07-23T21:18:40.087Z,8.03
2018-07-23T21:21:08.696Z,8.87
2018-07-23T21:23:37.289Z,8.97
2018-07-23T21:26:06.114Z,8.87
2018-07-23T21:28:35.498Z,8.70
2018-07-23T21:31:04.065Z,8.87
2018-07-23T21:33:33.488Z,8.43
2018-07-23T21:36:02.031Z,8.83
2018-07-23T21:38:31.297Z,9.03
2018-07-23T21:40:59.997Z,8.80
2018-07-23T21:43:29.153Z,9.17
2018-07-23T21:45:57.712Z,9.43
2018-07-23T21:48:26.290Z,8.90
2018-07-23T21:50:54.967Z,10.30
2018-07-23T21:53:23.622Z,8.83
2018-07-23T21:55:52.391Z,10.23
2018-07-23T21:58:21.004Z,9.47
2018-07-23T22:00:49.605Z,9.83
2018-07-23T22:03:18.302Z,9.90
2018-07-23T22:05:46.954Z,8.80
2018-07-23T22:08:15.488Z,8.90
2018-07-23T22:10:44.194Z,9.83
2018-07-23T22:13:12.693Z,9.07
2018-07-23T22:15:40.878Z,9.67
2018-07-23T22:18:09.428Z,9.80
2018-07-23T22:20:38.281Z,10.57
2018-07-23T22:23:06.935Z,10.47
2018-07-23T22:25:35.540Z,10.20
2018-07-23T22:28:04.155Z,11.00
2018-07-23T22:30:32.735Z,10.30
2018-07-23T22:33:01.376Z,9.20
2018-07-23T22:35:29.970Z,10.50
2018-07-23T22:37:58.569Z,11.20
2018-07-23T22:40:27.327Z,8.40
2018-07-23T22:42:56.456Z,16.13
2018-07-23T22:45:25.124Z,10.90
2018-07-23T22:47:54.654Z,10.57
2018-07-23T22:50:23.564Z,14.90
2018-07-23T22:52:52.348Z,10.67
2018-07-23T22:55:20.900Z,11.30
2018-07-23T22:57:49.548Z,9.53
2018-07-23T23:00:17.782Z,10.20
2018-07-23T23:02:46.468Z,10.33
2018-07-23T23:05:15.107Z,9.60
2018-07-23T23:07:44.551Z,10.63
2018-07-23T23:10:13.616Z,10.67
2018-07-23T23:12:42.230Z,10.53
2018-07-23T23:15:10.973Z,10.37
2018-07-23T23:17:39.812Z,9.87
2018-07-23T23:20:08.789Z,10.20
2018-07-23T23:22:37.358Z,10.20
2018-07-23T23:25:05.939Z,10.47
2018-07-23T23:27:34.547Z,10.80
2018-07-23T23:30:03.409Z,10.80
2018-07-23T23:32:32.146Z,10.70
2018-07-23T23:35:00.886Z,10.30
2018-07-23T23:37:29.810Z,10.30
2018-07-23T23:39:58.420Z,10.30
2018-07-23T23:42:27.048Z,10.20
2018-07-23T23:44:55.763Z,10.83
2018-07-23T23:47:24.449Z,10.50
2018-07-23T23:49:53.170Z,11.37
2018-07-23T23:52:21.848Z,11.27
2018-07-23T23:54:50.458Z,10.50
2018-07-23T23:57:19.026Z,11.50
2018-07-23T23:59:47.591Z,11.00
